Aviation Weather


METAR:

Vær-rapport

METAR for
utstedt den klokka UTC:




TAF: 2021/07/26 18:58 TAF ENVA 261700Z 2618/2718 10005KT CAVOK BECMG 2709/2712 16010KT

Vær-prognose

Værprognose for
ENVA utstedt den 26/7-2021 klokka 18:58 UTC:


Varsel er gyldig mellom den 26. klokka 18:00 og den 27. klokka 18:00
Vind: ?stlig svak vind fra 100 grader med en vindhastighet på 5 knop (3 m/s, 9 km/t, Styrke 2)
Vær: God sikt og ingen lave skyer

Mellom den 27. klokka 9:00 og den 27. klokka 12:00 vil det bli:
Vind: S?rlig lett bris fra 160 grader med en vindhastighet på 10 knop (5 m/s, 19 km/t, Styrke 3)